createdAt,value
2023-04-16T00:01:16.283Z,1015.55
2023-04-16T00:11:21.520Z,1015.59
2023-04-16T00:21:27.889Z,1015.62
2023-04-16T00:31:33.249Z,1015.64
2023-04-16T00:41:38.658Z,1015.66
2023-04-16T00:53:03.172Z,1015.67
2023-04-16T01:03:07.842Z,1015.75
2023-04-16T01:13:13.313Z,1015.79
2023-04-16T01:23:18.754Z,1015.83
2023-04-16T01:33:23.829Z,1015.87
2023-04-16T01:43:29.284Z,1015.94
2023-04-16T01:54:54.403Z,1016.00
2023-04-16T02:04:59.139Z,1016.04
2023-04-16T02:15:04.596Z,1016.07
2023-04-16T02:25:10.076Z,1016.18
2023-04-16T02:35:15.674Z,1016.19
2023-04-16T02:45:20.926Z,1016.28
2023-04-16T02:55:26.330Z,1016.31
2023-04-16T03:05:31.866Z,1016.31
2023-04-16T03:15:37.130Z,1016.36
2023-04-16T03:25:43.701Z,1016.39
2023-04-16T03:35:48.993Z,1016.44
2023-04-16T03:45:54.023Z,1016.55
2023-04-16T03:55:59.407Z,1016.62
2023-04-16T04:06:04.760Z,1016.81
2023-04-16T04:16:10.169Z,1016.87
2023-04-16T04:26:15.629Z,1016.98
2023-04-16T04:36:21.264Z,1017.00
2023-04-16T04:49:05.766Z,1017.05
2023-04-16T04:59:10.210Z,1017.17
2023-04-16T05:09:15.743Z,1017.29
2023-04-16T05:19:20.907Z,1017.40
2023-04-16T05:29:26.375Z,1017.51
2023-04-16T05:39:31.590Z,1017.59
2023-04-16T05:49:37.091Z,1017.63
2023-04-16T06:01:01.679Z,1017.66
2023-04-16T06:11:06.281Z,1017.80
2023-04-16T06:21:11.774Z,1017.91
2023-04-16T06:31:17.252Z,1018.02
2023-04-16T06:41:22.472Z,1018.03
2023-04-16T06:51:27.377Z,1018.07
2023-04-16T07:01:33.093Z,1018.16
2023-04-16T07:11:38.054Z,1018.23
2023-04-16T07:21:43.402Z,1018.30
2023-04-16T07:31:49.149Z,1018.40
2023-04-16T07:41:54.393Z,1018.44
2023-04-16T07:53:19.175Z,1018.60
2023-04-16T08:03:23.959Z,1018.61
2023-04-16T08:13:30.417Z,1018.73
2023-04-16T08:23:37.230Z,1018.86
2023-04-16T08:33:42.713Z,1018.93
2023-04-16T08:43:48.072Z,1019.06
2023-04-16T08:53:53.325Z,1019.08
2023-04-16T09:03:58.996Z,1019.18
2023-04-16T09:14:05.031Z,1019.28
2023-04-16T09:24:10.552Z,1019.36
2023-04-16T09:34:16.108Z,1019.42
2023-04-16T09:44:21.489Z,1019.51
2023-04-16T09:54:27.645Z,1019.55
2023-04-16T10:04:33.048Z,1019.60
2023-04-16T10:14:38.576Z,1019.66
2023-04-16T10:24:44.100Z,1019.77
2023-04-16T10:34:49.408Z,1019.76
2023-04-16T10:44:55.088Z,1019.74
2023-04-16T10:55:00.655Z,1019.83
2023-04-16T11:05:06.873Z,1019.82
2023-04-16T11:15:12.274Z,1019.89
2023-04-16T11:25:17.885Z,1019.95
2023-04-16T11:35:23.389Z,1020.01
2023-04-16T11:45:29.188Z,1020.04
2023-04-16T11:55:34.588Z,1020.09
2023-04-16T12:05:40.381Z,1020.11
2023-04-16T12:15:45.547Z,1020.14
2023-04-16T12:25:50.747Z,1020.22
2023-04-16T12:37:16.050Z,1020.33
2023-04-16T12:47:21.149Z,1020.31
2023-04-16T12:57:26.485Z,1020.36
2023-04-16T13:07:31.856Z,1020.45
2023-04-16T13:17:37.774Z,1020.56
2023-04-16T13:27:43.669Z,1020.64
2023-04-16T13:37:49.161Z,1020.69
2023-04-16T13:47:54.912Z,1020.61
2023-04-16T13:59:20.250Z,1020.64
2023-04-16T14:09:24.893Z,1020.62
2023-04-16T14:19:30.233Z,1020.62
2023-04-16T14:29:35.758Z,1020.67
2023-04-16T14:39:40.898Z,1020.71
2023-04-16T14:49:46.209Z,1020.74
2023-04-16T14:59:52.056Z,1020.77
2023-04-16T15:09:57.522Z,1020.86
2023-04-16T15:20:02.771Z,1020.93
2023-04-16T15:30:08.746Z,1020.96
2023-04-16T15:40:15.464Z,1020.98
2023-04-16T15:50:20.710Z,1021.08
2023-04-16T16:00:25.854Z,1021.17
2023-04-16T16:10:31.354Z,1021.29
2023-04-16T16:20:37.381Z,1021.25
2023-04-16T16:30:42.475Z,1021.33
2023-04-16T16:40:48.453Z,1021.35
2023-04-16T16:50:54.144Z,1021.37
2023-04-16T17:00:59.666Z,1021.44
2023-04-16T17:11:05.601Z,1021.63
2023-04-16T17:21:12.203Z,1021.70
2023-04-16T17:31:18.111Z,1021.83
2023-04-16T17:41:23.514Z,1021.93
2023-04-16T17:51:29.222Z,1022.03
2023-04-16T18:02:55.349Z,1022.15
2023-04-16T18:13:00.187Z,1022.28
2023-04-16T18:23:05.847Z,1022.38
2023-04-16T18:33:42.711Z,1022.47
2023-04-16T18:43:22.851Z,1022.61
2023-04-16T18:53:28.198Z,1022.72
2023-04-16T19:03:33.265Z,1022.76
2023-04-16T19:13:38.679Z,1022.78
2023-04-16T19:23:44.038Z,1022.85
2023-04-16T19:33:49.500Z,1022.89
2023-04-16T19:43:54.618Z,1022.91
2023-04-16T19:53:59.922Z,1022.96
2023-04-16T20:04:05.741Z,1022.93
2023-04-16T20:14:10.865Z,1023.03
2023-04-16T20:24:16.341Z,1023.07
2023-04-16T20:34:21.493Z,1023.05
2023-04-16T20:44:26.970Z,1023.17
2023-04-16T20:54:32.264Z,1023.22
2023-04-16T21:04:37.842Z,1023.24
2023-04-16T21:14:43.758Z,1023.29
2023-04-16T21:24:49.957Z,1023.31
2023-04-16T21:34:55.173Z,1023.29
2023-04-16T21:45:00.745Z,1023.31
2023-04-16T21:55:06.294Z,1023.32
2023-04-16T22:05:11.651Z,1023.29
2023-04-16T22:15:17.095Z,1023.40
2023-04-16T22:25:22.318Z,1023.42
2023-04-16T22:35:27.227Z,1023.43
2023-04-16T22:45:32.351Z,1023.47
2023-04-16T22:55:37.892Z,1023.48
2023-04-16T23:05:43.206Z,1023.50
2023-04-16T23:15:48.419Z,1023.52
2023-04-16T23:25:53.381Z,1023.54
2023-04-16T23:35:59.082Z,1023.49
2023-04-16T23:46:04.479Z,1023.45
2023-04-16T23:56:09.989Z,1023.46
